Costa Atlantica — IBLQ — position and weather

sailwx.info

Track history (hours):
 
Tides and Currents Weather Stations Pressure Air Temp Water Temp Dewpoint Dewpoint Depression Visibility Wind Speed Wind Dir Waves Ship Positions

Costa Atlantica (Italy)

Last reported at 2017-May-25 10:31 UTC. Time now 2017-May-25 10:32 UTC.
Position N 31°21' E 123°47'.

Length 292 m; draft 8 m.

Type: Ship. MMSI: 247645000.

Date/timePositionNaut miles runAvg speedWind from/ knotsBaromVisibWave heightAir tempDewpointWater temp
2017-May-25 10:31N 31°21' E 123°47'1019.2
2017-May-25 10:00N 31°20' E 123°58'919.2
2017-May-25 09:30N 31°20' E 124°09'918.5
2017-May-25 09:00N 31°20' E 124°21'918.0
2017-May-25 08:30N 31°19' E 124°31'917.8
2017-May-25 08:00N 31°19' E 124°41'917.2
2017-May-25 07:30N 31°19' E 124°51'  
2017-May-22 10:46N 31°13' E 122°06'312.1
2017-May-22 10:30N 31°14' E 122°03'713.7
2017-May-22 10:01N 31°16' E 121°55'714.6
2017-May-22 09:30N 31°18' E 121°47'612.5
2017-May-22 09:00N 31°21' E 121°40'67 2.9
2017-May-21 10:19N 31°22' E 122°58'413.1
2017-May-21 10:00N 31°23' E 123°03'3613.5
2017-May-21 07:21N 31°31' E 123°44'  
2017-May-18 11:39N 31°14' E 122°05'211.8
2017-May-18 11:30N 31°14' E 122°03'611.3
2017-May-18 11:00N 31°15' E 121°56'611.7
2017-May-18 10:30N 31°17' E 121°50'611.5
2017-May-18 10:00N 31°19' E 121°43'4 7.1
2017-May-18 09:30N 31°21' E 121°40'3 6.8
2017-May-18 09:00N 31°23' E 121°36'4 7.4
2017-May-18 08:30N 31°24' E 121°33'2 3.4
2017-May-18 07:56N 31°25' E 121°30'0 0.0
2017-May-18 07:28N 31°25' E 121°30'0 0.0
2017-May-18 06:50N 31°25' E 121°30'0 0.0
2017-May-18 06:26N 31°25' E 121°30'0 0.0
2017-May-18 05:53N 31°25' E 121°30'0 0.0
2017-May-18 05:26N 31°25' E 121°30'0 0.0
2017-May-18 04:56N 31°25' E 121°30'0 0.0
2017-May-18 04:28N 31°25' E 121°30'0 0.0
2017-May-18 03:56N 31°25' E 121°30'0 0.0
2017-May-18 03:20N 31°25' E 121°30'0 0.0
2017-May-18 02:58N 31°25' E 121°30'0 0.0
2017-May-18 02:26N 31°25' E 121°30'0 0.0
2017-May-18 01:58N 31°25' E 121°30'0 0.0
2017-May-18 01:29N 31°25' E 121°30'0 0.0
2017-May-18 00:58N 31°25' E 121°30'0 0.0
2017-May-18 00:26N 31°25' E 121°30'0 0.0
2017-May-17 23:59N 31°25' E 121°30'0 0.1
2017-May-17 23:30N 31°25' E 121°30'4 7.6
2017-May-17 23:00N 31°24' E 121°35'510.5
2017-May-17 22:30N 31°21' E 121°40'5 9.6
2017-May-17 22:00N 31°19' E 121°45'4 8.7
2017-May-17 21:30N 31°17' E 121°50'611.3
2017-May-17 21:00N 31°15' E 121°56'611.2
2017-May-17 20:30N 31°14' E 122°02'510.7
2017-May-17 20:00N 31°12' E 122°08'611.6
2017-May-17 19:30N 31°09' E 122°14'611.3
2017-May-17 19:00N 31°06' E 122°20'612.5
2017-May-17 18:30N 31°07' E 122°27'710.8
2017-May-17 17:52N 31°13' E 122°31'616.0
2017-May-17 17:30N 31°19' E 122°33'715.0
2017-May-17 17:01N 31°20' E 122°42'612.5
2017-May-17 16:30N 31°20' E 122°49'612.5
2017-May-17 16:00N 31°22' E 122°56'612.8
2017-May-17 15:30N 31°23' E 123°03'912.8
2017-May-17 14:49N 31°25' E 123°13'1012.7
2017-May-17 14:00N 31°27' E 123°25'612.8
2017-May-17 13:30N 31°29' E 123°33'712.6
2017-May-17 12:59N 31°30' E 123°40'612.7
2017-May-17 12:30N 31°31' E 123°47'612.4
2017-May-17 12:00N 31°33' E 123°54'612.3
2017-May-17 11:29N 31°34' E 124°02'811.8
2017-May-17 10:47N 31°36' E 124°11'1811.3
2017-May-17 09:10N 31°41' E 124°32'2510.1
2017-May-17 06:40N 31°46' E 125°01'210.8
2017-May-17 06:30N 31°46' E 125°03'610.8
2017-May-17 05:57N 31°47' E 125°10'511.0
2017-May-17 05:30N 31°48' E 125°15'611.3
2017-May-17 05:00N 31°50' E 125°22'  
Track history (hours):
 
Tides and Currents Weather Stations Pressure Air Temp Water Temp Dewpoint Dewpoint Depression Visibility Wind Speed Wind Dir Waves Ship Positions

Costa Atlantica (Italy)

Last reported at 2017-May-25 10:31 UTC. Time now 2017-May-25 10:32 UTC.
Position N 31°21' E 123°47'.

Length 292 m; draft 8 m.

Type: Ship. MMSI: 247645000.

Date/timePositionNaut miles runAvg speedWind from/ knotsBaromVisibWave heightAir tempDewpointWater temp
2017-May-25 10:31N 31°21' E 123°47'1019.2
2017-May-25 10:00N 31°20' E 123°58'919.2
2017-May-25 09:30N 31°20' E 124°09'918.5
2017-May-25 09:00N 31°20' E 124°21'918.0
2017-May-25 08:30N 31°19' E 124°31'917.8
2017-May-25 08:00N 31°19' E 124°41'917.2
2017-May-25 07:30N 31°19' E 124°51'  
2017-May-22 10:46N 31°13' E 122°06'312.1
2017-May-22 10:30N 31°14' E 122°03'713.7
2017-May-22 10:01N 31°16' E 121°55'714.6
2017-May-22 09:30N 31°18' E 121°47'612.5
2017-May-22 09:00N 31°21' E 121°40'67 2.9
2017-May-21 10:19N 31°22' E 122°58'413.1
2017-May-21 10:00N 31°23' E 123°03'3613.5
2017-May-21 07:21N 31°31' E 123°44'  
2017-May-18 11:39N 31°14' E 122°05'211.8
2017-May-18 11:30N 31°14' E 122°03'611.3
2017-May-18 11:00N 31°15' E 121°56'611.7
2017-May-18 10:30N 31°17' E 121°50'611.5
2017-May-18 10:00N 31°19' E 121°43'4 7.1
2017-May-18 09:30N 31°21' E 121°40'3 6.8
2017-May-18 09:00N 31°23' E 121°36'4 7.4
2017-May-18 08:30N 31°24' E 121°33'2 3.4
2017-May-18 07:56N 31°25' E 121°30'0 0.0
2017-May-18 07:28N 31°25' E 121°30'0 0.0
2017-May-18 06:50N 31°25' E 121°30'0 0.0
2017-May-18 06:26N 31°25' E 121°30'0 0.0
2017-May-18 05:53N 31°25' E 121°30'0 0.0
2017-May-18 05:26N 31°25' E 121°30'0 0.0
2017-May-18 04:56N 31°25' E 121°30'0 0.0
2017-May-18 04:28N 31°25' E 121°30'0 0.0
2017-May-18 03:56N 31°25' E 121°30'0 0.0
2017-May-18 03:20N 31°25' E 121°30'0 0.0
2017-May-18 02:58N 31°25' E 121°30'0 0.0
2017-May-18 02:26N 31°25' E 121°30'0 0.0
2017-May-18 01:58N 31°25' E 121°30'0 0.0
2017-May-18 01:29N 31°25' E 121°30'0 0.0
2017-May-18 00:58N 31°25' E 121°30'0 0.0
2017-May-18 00:26N 31°25' E 121°30'0 0.0
2017-May-17 23:59N 31°25' E 121°30'0 0.1
2017-May-17 23:30N 31°25' E 121°30'4 7.6
2017-May-17 23:00N 31°24' E 121°35'510.5
2017-May-17 22:30N 31°21' E 121°40'5 9.6
2017-May-17 22:00N 31°19' E 121°45'4 8.7
2017-May-17 21:30N 31°17' E 121°50'611.3
2017-May-17 21:00N 31°15' E 121°56'611.2
2017-May-17 20:30N 31°14' E 122°02'510.7
2017-May-17 20:00N 31°12' E 122°08'611.6
2017-May-17 19:30N 31°09' E 122°14'611.3
2017-May-17 19:00N 31°06' E 122°20'612.5
2017-May-17 18:30N 31°07' E 122°27'710.8
2017-May-17 17:52N 31°13' E 122°31'616.0
2017-May-17 17:30N 31°19' E 122°33'715.0
2017-May-17 17:01N 31°20' E 122°42'612.5
2017-May-17 16:30N 31°20' E 122°49'612.5
2017-May-17 16:00N 31°22' E 122°56'612.8
2017-May-17 15:30N 31°23' E 123°03'912.8
2017-May-17 14:49N 31°25' E 123°13'1012.7
2017-May-17 14:00N 31°27' E 123°25'612.8
2017-May-17 13:30N 31°29' E 123°33'712.6
2017-May-17 12:59N 31°30' E 123°40'612.7
2017-May-17 12:30N 31°31' E 123°47'612.4
2017-May-17 12:00N 31°33' E 123°54'612.3
2017-May-17 11:29N 31°34' E 124°02'811.8
2017-May-17 10:47N 31°36' E 124°11'1811.3
2017-May-17 09:10N 31°41' E 124°32'2510.1
2017-May-17 06:40N 31°46' E 125°01'210.8
2017-May-17 06:30N 31°46' E 125°03'610.8
2017-May-17 05:57N 31°47' E 125°10'511.0
2017-May-17 05:30N 31°48' E 125°15'611.3
2017-May-17 05:00N 31°50' E 125°22'  

Dump ship's entire track history